Terminal Aerodrome Forecast
Issued by NWS Spokane, WA

Home | Current Version | Previous Version | Text Only | Print | Product List | Glossary On
Versions: 1 2 3 4 5 6 7 8 9 10 11 12 13 14 15 16 17 18 19 20 21 22 23 24 25 26 27 28
005
FTUS46 KOTX 270228 AAB
TAFGEG
TAF AMD
KGEG 270228Z 2702/2724 18018G40KT P6SM TSRA BKN080 OVC100CB
     FM270330 30015G30KT P6SM TSRA BKN080 OVC100CB
     FM270500 21015KT P6SM SCT120 SCT250
     FM271500 23009KT P6SM SCT250=

USA.gov is the U.S. government's official web portal to all federal, state and local government web resources and services.